Time;durP1;ratioP1;P1;durP2;ratioP2;P2;SDS_P1;SDS_P2;PMS_P1;PMS_P2;Temp;Humidity;BMP_temperature;BMP_pressure;BME280_temperature;BME280_humidity;BME280_pressure;Samples;Min_cycle;Max_cycle;Signal;HPM_P1;HPM_P2
2022/03/20 00:01:02;;;;;;;1.40;1.02;;;;;;;;;;5058024;28;20116;-82
2022/03/20 00:03:31;;;;;;;0.57;0.57;;;;;;;;;;5056933;28;20033;-82
2022/03/20 00:05:59;;;;;;;1.50;1.17;;;;;;;;;;5056769;28;20523;-79
2022/03/20 00:08:30;;;;;;;3.17;1.52;;;;;;;;;;5056759;28;20020;-82
2022/03/20 00:10:59;;;;;;;3.40;2.65;;;;;;;;;;5057449;28;20029;-81
2022/03/20 00:13:25;;;;;;;2.60;1.52;;;;;;;;;;5055989;28;20021;-81
2022/03/20 00:15:52;;;;;;;2.00;1.90;;;;;;;;;;5033710;28;20025;-80
2022/03/20 00:18:21;;;;;;;1.83;1.73;;;;;;;;;;5063699;28;20031;-81
2022/03/20 00:20:51;;;;;;;1.95;1.85;;;;;;;;;;5050981;28;20025;-80
2022/03/20 00:23:18;;;;;;;2.17;1.40;;;;;;;;;;5060622;28;20016;-82
2022/03/20 00:25:46;;;;;;;2.88;2.20;;;;;;;;;;5054307;28;20097;-80
2022/03/20 00:28:18;;;;;;;2.95;1.80;;;;;;;;;;5048293;28;20367;-83
2022/03/20 00:30:44;;;;;;;1.60;1.50;;;;;;;;;;5050076;28;20339;-80
2022/03/20 00:33:10;;;;;;;2.00;1.90;;;;;;;;;;5052977;28;20275;-82
2022/03/20 00:35:38;;;;;;;2.80;1.58;;;;;;;;;;5050209;28;20377;-82
2022/03/20 00:38:09;;;;;;;1.30;1.20;;;;;;;;;;5055672;28;20358;-83
2022/03/20 00:40:35;;;;;;;1.45;1.40;;;;;;;;;;5055774;28;20118;-82
2022/03/20 00:43:04;;;;;;;0.93;0.93;;;;;;;;;;5054896;28;20044;-81
2022/03/20 00:45:32;;;;;;;1.38;1.27;;;;;;;;;;5055341;28;20451;-82
2022/03/20 00:47:57;;;;;;;0.20;0.20;;;;;;;;;;5056839;28;20438;-83
2022/03/20 00:50:23;;;;;;;2.40;2.20;;;;;;;;;;5056543;28;20043;-82
2022/03/20 00:52:51;;;;;;;0.75;0.75;;;;;;;;;;5056549;28;20040;-82
2022/03/20 00:55:19;;;;;;;1.23;0.90;;;;;;;;;;5056833;28;20029;-82
2022/03/20 00:57:45;;;;;;;1.70;1.60;;;;;;;;;;5056316;28;20063;-81
2022/03/20 01:00:11;;;;;;;0.52;0.52;;;;;;;;;;5057480;28;20378;-83
2022/03/20 01:02:39;;;;;;;1.45;1.35;;;;;;;;;;5057432;28;20021;-84
2022/03/20 01:05:05;;;;;;;2.13;2.00;;;;;;;;;;5064276;28;20044;-83
2022/03/20 01:07:30;;;;;;;1.42;1.33;;;;;;;;;;5061464;28;20464;-84
2022/03/20 01:09:55;;;;;;;2.40;1.20;;;;;;;;;;5057924;28;20453;-83
2022/03/20 01:12:21;;;;;;;1.60;1.50;;;;;;;;;;5056780;28;20450;-84
2022/03/20 01:14:53;;;;;;;0.80;0.80;;;;;;;;;;5057645;28;20024;-85
2022/03/20 01:17:18;;;;;;;;;;;;;;;;;;5056872;28;20326;-83
2022/03/20 01:19:47;;;;;;;0.22;0.22;;;;;;;;;;5056237;28;19916;-81
2022/03/20 01:22:15;;;;;;;1.65;1.45;;;;;;;;;;5056413;28;20028;-85
2022/03/20 01:24:41;;;;;;;1.35;0.93;;;;;;;;;;5055085;28;20587;-85
2022/03/20 01:27:07;;;;;;;1.52;1.42;;;;;;;;;;5054050;28;20108;-83
2022/03/20 01:29:34;;;;;;;1.88;1.73;;;;;;;;;;5055457;28;20025;-85
2022/03/20 01:31:59;;;;;;;1.13;1.13;;;;;;;;;;5055781;28;20033;-83
2022/03/20 01:34:25;;;;;;;2.35;1.60;;;;;;;;;;5055667;28;20086;-83
2022/03/20 01:36:53;;;;;;;1.02;0.55;;;;;;;;;;5055723;28;20031;-83
2022/03/20 01:39:21;;;;;;;2.05;1.10;;;;;;;;;;5055800;28;20022;-83
2022/03/20 01:41:47;;;;;;;1.90;1.23;;;;;;;;;;5054852;28;20025;-84
2022/03/20 01:44:13;;;;;;;0.65;0.63;;;;;;;;;;5055511;28;20051;-83
2022/03/20 01:46:39;;;;;;;3.85;1.73;;;;;;;;;;5054520;28;20044;-82
2022/03/20 01:49:04;;;;;;;1.10;1.05;;;;;;;;;;5054624;28;20551;-83
2022/03/20 01:54:14;;;;;;;0.90;0.90;;;;;;;;;;5055507;28;20040;-83
2022/03/20 01:56:45;;;;;;;1.05;1.05;;;;;;;;;;5054699;28;20033;-83
2022/03/20 01:59:11;;;;;;;1.08;0.98;;;;;;;;;;5054642;28;20036;-80
2022/03/20 02:01:36;;;;;;;0.85;0.82;;;;;;;;;;5055406;28;20029;-84
2022/03/20 02:04:04;;;;;;;1.65;0.95;;;;;;;;;;5048925;28;20362;-81
2022/03/20 02:06:35;;;;;;;1.08;0.85;;;;;;;;;;5053582;28;20036;-83
2022/03/20 02:09:00;;;;;;;1.58;1.20;;;;;;;;;;5054730;28;20035;-84
2022/03/20 02:11:28;;;;;;;1.42;1.35;;;;;;;;;;5054007;28;20029;-84
2022/03/20 02:13:56;;;;;;;1.50;1.40;;;;;;;;;;5054253;28;20664;-82
2022/03/20 02:16:22;;;;;;;2.78;1.73;;;;;;;;;;5054078;28;20090;-84
2022/03/20 02:18:48;;;;;;;2.47;2.38;;;;;;;;;;5037574;28;20434;-82
2022/03/20 02:21:15;;;;;;;1.55;1.45;;;;;;;;;;5037518;28;20047;-83
2022/03/20 02:23:43;;;;;;;0.43;0.43;;;;;;;;;;5054022;28;20100;-82
2022/03/20 02:26:13;;;;;;;1.88;1.75;;;;;;;;;;5053473;28;20113;-80
2022/03/20 02:28:40;;;;;;;1.77;0.85;;;;;;;;;;5054050;28;20029;-82
2022/03/20 02:31:06;;;;;;;2.08;1.52;;;;;;;;;;5054595;28;20029;-82
2022/03/20 02:33:34;;;;;;;5.25;2.53;;;;;;;;;;5053951;28;20028;-83
2022/03/20 02:36:01;;;;;;;6.95;2.50;;;;;;;;;;5054749;28;20029;-83
2022/03/20 02:38:33;;;;;;;1.88;1.77;;;;;;;;;;5053884;28;20025;-81
2022/03/20 02:41:00;;;;;;;1.17;0.90;;;;;;;;;;5053704;28;20036;-83
2022/03/20 02:43:29;;;;;;;3.08;2.80;;;;;;;;;;5047975;28;20287;-80
2022/03/20 02:45:55;;;;;;;2.10;1.88;;;;;;;;;;5048328;28;20119;-84
2022/03/20 02:48:20;;;;;;;4.30;2.28;;;;;;;;;;5052877;28;20188;-81
2022/03/20 02:50:46;;;;;;;1.17;1.13;;;;;;;;;;5054816;28;20460;-84
2022/03/20 02:53:14;;;;;;;1.40;1.30;;;;;;;;;;5054560;28;20358;-84
2022/03/20 02:55:49;;;;;;;1.50;1.40;;;;;;;;;;5054782;28;20025;-84
2022/03/20 02:58:18;;;;;;;3.72;2.80;;;;;;;;;;5025867;28;20029;-84
2022/03/20 03:00:44;;;;;;;0.73;0.57;;;;;;;;;;5053400;28;20028;-80
2022/03/20 03:03:13;;;;;;;1.45;1.25;;;;;;;;;;5053492;28;20446;-85
2022/03/20 03:05:40;;;;;;;2.33;2.05;;;;;;;;;;5053521;28;20346;-76
2022/03/20 03:10:56;;;;;;;3.83;0.65;;;;;;;;;;5050151;28;20191;-73
2022/03/20 03:13:40;;;;;;;2.13;1.42;;;;;;;;;;5053423;28;20017;-74
2022/03/20 03:16:08;;;;;;;1.00;1.00;;;;;;;;;;5053782;28;20029;-73
2022/03/20 03:18:34;;;;;;;2.35;2.17;;;;;;;;;;5053733;28;20337;-73
2022/03/20 03:21:00;;;;;;;4.00;1.40;;;;;;;;;;5053947;28;20472;-73
2022/03/20 03:23:25;;;;;;;1.25;1.23;;;;;;;;;;5053861;28;20025;-73
2022/03/20 03:25:51;;;;;;;3.30;2.53;;;;;;;;;;5053893;28;20025;-73
2022/03/20 03:28:17;;;;;;;3.40;2.60;;;;;;;;;;5054129;28;20051;-73
2022/03/20 03:30:47;;;;;;;2.10;1.70;;;;;;;;;;5053991;28;20552;-74
2022/03/20 03:33:14;;;;;;;1.00;0.95;;;;;;;;;;5052724;28;20040;-73
2022/03/20 03:35:42;;;;;;;1.20;0.98;;;;;;;;;;5050344;28;20040;-73
2022/03/20 03:38:13;;;;;;;1.17;1.08;;;;;;;;;;5052590;28;20037;-73
2022/03/20 03:40:39;;;;;;;0.90;0.90;;;;;;;;;;5052911;28;20021;-73
2022/03/20 03:43:07;;;;;;;1.50;1.40;;;;;;;;;;5053686;28;20021;-74
2022/03/20 03:45:33;;;;;;;2.42;1.27;;;;;;;;;;5053667;28;20107;-73
2022/03/20 03:47:59;;;;;;;3.00;2.78;;;;;;;;;;5053071;28;20029;-73
2022/03/20 03:50:28;;;;;;;5.00;3.38;;;;;;;;;;5052880;28;20025;-73
2022/03/20 03:52:56;;;;;;;0.52;0.52;;;;;;;;;;5053446;28;20369;-73
2022/03/20 03:55:21;;;;;;;1.75;1.58;;;;;;;;;;5053695;28;20052;-73
2022/03/20 03:57:50;;;;;;;1.13;0.77;;;;;;;;;;5053671;28;20064;-73
2022/03/20 04:00:18;;;;;;;0.68;0.68;;;;;;;;;;5053403;28;20104;-73
2022/03/20 04:02:43;;;;;;;3.35;2.15;;;;;;;;;;5053349;28;20024;-73
2022/03/20 04:05:09;;;;;;;1.13;1.13;;;;;;;;;;5047461;28;20446;-74
2022/03/20 04:07:37;;;;;;;2.72;2.53;;;;;;;;;;5069910;28;20036;-73
2022/03/20 04:10:05;;;;;;;1.05;0.98;;;;;;;;;;5053436;28;20029;-73
2022/03/20 04:12:30;;;;;;;0.77;0.77;;;;;;;;;;5052315;28;20029;-73
2022/03/20 04:15:00;;;;;;;0.98;0.93;;;;;;;;;;5053544;28;20040;-73
2022/03/20 04:17:25;;;;;;;0.57;0.57;;;;;;;;;;5053231;28;20037;-73
2022/03/20 04:19:51;;;;;;;2.05;1.83;;;;;;;;;;5055523;28;20350;-73
2022/03/20 04:22:16;;;;;;;6.60;2.40;;;;;;;;;;5057232;28;20112;-74
2022/03/20 04:24:44;;;;;;;1.27;0.90;;;;;;;;;;5057126;28;20052;-74
2022/03/20 04:27:11;;;;;;;1.23;1.13;;;;;;;;;;5052606;28;20036;-74
2022/03/20 04:29:37;;;;;;;0.60;0.60;;;;;;;;;;5056324;28;20021;-73
2022/03/20 04:32:02;;;;;;;1.08;1.05;;;;;;;;;;5057243;28;20044;-73
2022/03/20 04:34:27;;;;;;;2.88;2.15;;;;;;;;;;5057334;28;20033;-73
2022/03/20 04:36:58;;;;;;;1.15;1.08;;;;;;;;;;5057255;28;20036;-73
2022/03/20 04:39:24;;;;;;;0.75;0.75;;;;;;;;;;5057023;28;20024;-73
2022/03/20 04:41:50;;;;;;;0.22;0.22;;;;;;;;;;5052763;28;20029;-73
2022/03/20 04:44:15;;;;;;;2.97;1.73;;;;;;;;;;5055011;28;20362;-73
2022/03/20 04:46:45;;;;;;;2.25;2.10;;;;;;;;;;5055844;28;20115;-74
2022/03/20 05:00:08;;;;;;;1.30;1.00;;;;;;;;;;5054178;28;20040;-73
2022/03/20 05:02:36;;;;;;;1.40;0.98;;;;;;;;;;5055136;28;20111;-73
2022/03/20 05:05:05;;;;;;;1.70;1.60;;;;;;;;;;5055700;28;20426;-72
2022/03/20 05:07:33;;;;;;;1.23;1.13;;;;;;;;;;5055130;28;20040;-73
2022/03/20 05:15:29;;;;;;;1.83;1.35;;;;;;;;;;5055447;28;20036;-74
2022/03/20 05:17:54;;;;;;;0.98;0.98;;;;;;;;;;5055096;28;20028;-73
2022/03/20 05:20:22;;;;;;;1.77;1.67;;;;;;;;;;5055260;28;20097;-73
2022/03/20 05:22:47;;;;;;;0.70;0.70;;;;;;;;;;5054610;28;20044;-73
2022/03/20 05:25:13;;;;;;;1.17;1.13;;;;;;;;;;5055995;28;20029;-72
2022/03/20 05:27:39;;;;;;;1.80;1.70;;;;;;;;;;5055140;28;20541;-73
2022/03/20 05:30:07;;;;;;;1.85;1.70;;;;;;;;;;5055472;28;20108;-73
2022/03/20 05:32:36;;;;;;;1.13;1.02;;;;;;;;;;5055557;28;20472;-73
2022/03/20 05:35:05;;;;;;;7.38;4.00;;;;;;;;;;5055962;28;20025;-73
2022/03/20 05:37:37;;;;;;;2.17;1.90;;;;;;;;;;5054689;28;20025;-73
2022/03/20 05:40:39;;;;;;;1.63;1.48;;;;;;;;;;5055805;28;20389;-73
2022/03/20 05:43:08;;;;;;;1.17;0.98;;;;;;;;;;5052826;28;20025;-73
2022/03/20 05:45:39;;;;;;;2.17;1.23;;;;;;;;;;5055646;28;20125;-73
2022/03/20 05:48:05;;;;;;;1.58;1.48;;;;;;;;;;5055531;28;20021;-73
2022/03/20 05:50:30;;;;;;;1.60;1.50;;;;;;;;;;5037984;28;20358;-72
2022/03/20 05:52:55;;;;;;;1.17;1.00;;;;;;;;;;5055655;28;20032;-73
2022/03/20 05:58:01;;;;;;;3.10;2.33;;;;;;;;;;5055624;28;20043;-74
2022/03/20 05:58:13;;;;;;;0.40;0.40;;;;;;;;;;5054757;28;20478;-74
2022/03/20 06:00:42;;;;;;;1.67;1.05;;;;;;;;;;5055285;28;20044;-73
2022/03/20 06:03:15;;;;;;;0.77;0.75;;;;;;;;;;5054347;28;20342;-73
2022/03/20 06:05:40;;;;;;;0.70;0.70;;;;;;;;;;5054442;28;20041;-73
2022/03/20 06:08:06;;;;;;;0.73;0.70;;;;;;;;;;5050004;28;20094;-73
2022/03/20 06:10:32;;;;;;;2.03;1.88;;;;;;;;;;5054003;28;20434;-72
2022/03/20 06:13:03;;;;;;;1.70;1.50;;;;;;;;;;5054042;28;20071;-73
2022/03/20 06:15:28;;;;;;;0.80;0.77;;;;;;;;;;5054166;28;20132;-73
2022/03/20 06:17:53;;;;;;;0.73;0.73;;;;;;;;;;5034667;28;20478;-73
2022/03/20 06:20:19;;;;;;;0.40;0.40;;;;;;;;;;5053966;28;20116;-76
2022/03/20 06:22:47;;;;;;;1.55;1.33;;;;;;;;;;5054020;28;20024;-73
2022/03/20 06:25:13;;;;;;;1.02;1.02;;;;;;;;;;5037723;28;20029;-73
2022/03/20 06:27:44;;;;;;;0.80;0.80;;;;;;;;;;5040951;28;20021;-73
2022/03/20 06:30:10;;;;;;;1.45;1.35;;;;;;;;;;5048400;28;20025;-77
2022/03/20 06:32:37;;;;;;;1.73;1.15;;;;;;;;;;5053297;28;20212;-76
2022/03/20 06:35:05;;;;;;;0.47;0.47;;;;;;;;;;5054443;28;20040;-75
2022/03/20 06:37:36;;;;;;;7.35;3.47;;;;;;;;;;5054531;28;20452;-76
2022/03/20 06:40:01;;;;;;;1.65;1.55;;;;;;;;;;5053414;28;20342;-73
2022/03/20 06:42:28;;;;;;;2.47;2.00;;;;;;;;;;5053619;28;20028;-73
2022/03/20 06:44:54;;;;;;;1.15;1.05;;;;;;;;;;5054110;28;20028;-76
2022/03/20 06:47:19;;;;;;;2.78;1.95;;;;;;;;;;5054533;28;20162;-75
2022/03/20 06:49:45;;;;;;;2.42;2.10;;;;;;;;;;5054435;28;20025;-73
2022/03/20 06:52:13;;;;;;;0.93;0.93;;;;;;;;;;5053410;28;20090;-74
2022/03/20 06:54:38;;;;;;;1.75;1.65;;;;;;;;;;5054525;28;20044;-73
2022/03/20 06:57:04;;;;;;;1.23;1.15;;;;;;;;;;5053665;28;20714;-76
2022/03/20 06:59:29;;;;;;;0.73;0.65;;;;;;;;;;5053096;28;20036;-75
2022/03/20 07:01:54;;;;;;;0.60;0.60;;;;;;;;;;5054206;28;20127;-73
2022/03/20 07:04:22;;;;;;;1.05;1.05;;;;;;;;;;5054259;28;20111;-76
2022/03/20 07:06:49;;;;;;;0.43;0.43;;;;;;;;;;5054288;28;20020;-75
2022/03/20 07:09:17;;;;;;;1.65;1.55;;;;;;;;;;5036986;28;20381;-76
2022/03/20 07:11:42;;;;;;;1.15;1.15;;;;;;;;;;5053901;28;20025;-76
2022/03/20 07:14:08;;;;;;;1.52;1.42;;;;;;;;;;5052692;28;20361;-73
2022/03/20 07:16:33;;;;;;;1.05;1.05;;;;;;;;;;5054026;28;20036;-76
2022/03/20 07:18:59;;;;;;;1.27;1.17;;;;;;;;;;5054032;28;20021;-74
2022/03/20 07:21:25;;;;;;;0.88;0.82;;;;;;;;;;5053756;28;20337;-74
2022/03/20 07:23:57;;;;;;;2.50;2.30;;;;;;;;;;5053906;28;20039;-73
2022/03/20 07:31:52;;;;;;;0.85;0.85;;;;;;;;;;5054346;28;20472;-74
2022/03/20 07:34:20;;;;;;;1.70;1.50;;;;;;;;;;5053753;28;20023;-74
2022/03/20 07:36:45;;;;;;;1.75;1.65;;;;;;;;;;5053012;28;20028;-74
2022/03/20 07:39:11;;;;;;;0.88;0.88;;;;;;;;;;5053733;28;20335;-74
2022/03/20 07:41:36;;;;;;;1.45;1.35;;;;;;;;;;5053480;28;20029;-75
2022/03/20 07:44:02;;;;;;;3.20;1.58;;;;;;;;;;5053675;28;20025;-76
2022/03/20 07:46:27;;;;;;;2.63;2.45;;;;;;;;;;5052909;28;20025;-74
2022/03/20 07:48:52;;;;;;;2.10;1.90;;;;;;;;;;5053459;28;20399;-74
2022/03/20 07:51:20;;;;;;;2.10;2.00;;;;;;;;;;5053343;28;20036;-74
2022/03/20 07:53:45;;;;;;;1.30;1.20;;;;;;;;;;5053724;28;20024;-74
2022/03/20 07:56:11;;;;;;;1.65;1.55;;;;;;;;;;5057696;28;20331;-74
2022/03/20 07:58:37;;;;;;;1.98;0.75;;;;;;;;;;5057742;28;20656;-74
2022/03/20 08:01:02;;;;;;;1.25;0.93;;;;;;;;;;5056754;28;20144;-74
2022/03/20 08:03:28;;;;;;;2.72;2.53;;;;;;;;;;5056644;28;20025;-73
2022/03/20 08:05:53;;;;;;;4.35;2.95;;;;;;;;;;5057583;28;20127;-73
2022/03/20 08:08:21;;;;;;;3.00;2.33;;;;;;;;;;5057096;28;20029;-73
2022/03/20 08:10:49;;;;;;;1.67;1.58;;;;;;;;;;5051273;28;20032;-75
2022/03/20 08:13:14;;;;;;;2.10;2.00;;;;;;;;;;5066792;28;20017;-74
2022/03/20 08:15:40;;;;;;;1.83;1.73;;;;;;;;;;5048727;28;20030;-75
2022/03/20 08:18:08;;;;;;;2.72;2.53;;;;;;;;;;5057199;28;20098;-74
2022/03/20 08:20:34;;;;;;;2.72;1.83;;;;;;;;;;5055404;28;20028;-74
2022/03/20 08:23:00;;;;;;;4.70;3.15;;;;;;;;;;5050315;28;20047;-73
2022/03/20 08:25:26;;;;;;;2.78;2.50;;;;;;;;;;5055476;28;20025;-74
2022/03/20 08:27:53;;;;;;;3.63;2.20;;;;;;;;;;5056829;28;20086;-74
2022/03/20 08:30:20;;;;;;;1.73;1.63;;;;;;;;;;5073501;28;20096;-74
2022/03/20 08:32:49;;;;;;;3.17;2.28;;;;;;;;;;5056695;28;20116;-73
2022/03/20 08:35:16;;;;;;;1.60;1.38;;;;;;;;;;5056083;28;20385;-74
2022/03/20 08:37:43;;;;;;;2.30;2.10;;;;;;;;;;5054682;28;20033;-73
2022/03/20 08:40:15;;;;;;;3.38;2.03;;;;;;;;;;5056405;28;20057;-74
2022/03/20 08:42:45;;;;;;;3.35;2.10;;;;;;;;;;5053827;28;20075;-74
2022/03/20 08:45:12;;;;;;;4.57;1.77;;;;;;;;;;5045748;28;20439;-74
2022/03/20 08:47:40;;;;;;;3.25;2.38;;;;;;;;;;5052928;28;20044;-74
2022/03/20 08:50:06;;;;;;;3.50;1.73;;;;;;;;;;5055739;28;20036;-74
2022/03/20 08:52:32;;;;;;;1.40;1.30;;;;;;;;;;5055593;28;20029;-74
2022/03/20 08:55:00;;;;;;;4.20;2.78;;;;;;;;;;5049363;28;20358;-74
2022/03/20 08:57:27;;;;;;;1.23;1.13;;;;;;;;;;5054054;28;20044;-74
2022/03/20 08:59:54;;;;;;;5.72;3.40;;;;;;;;;;5056883;28;20051;-74
2022/03/20 09:02:22;;;;;;;2.08;1.35;;;;;;;;;;5051785;28;20472;-74
2022/03/20 09:04:47;;;;;;;2.75;1.90;;;;;;;;;;5049603;28;20439;-73
2022/03/20 09:07:13;;;;;;;2.70;2.38;;;;;;;;;;5051475;28;20040;-74
2022/03/20 09:09:40;;;;;;;6.20;2.20;;;;;;;;;;5054084;28;20036;-74
2022/03/20 09:12:11;;;;;;;1.40;1.30;;;;;;;;;;5056247;28;20049;-74
2022/03/20 09:14:45;;;;;;;2.20;1.98;;;;;;;;;;5054743;28;20406;-74
2022/03/20 09:19:55;;;;;;;3.83;2.30;;;;;;;;;;5053771;28;20052;-74
2022/03/20 09:22:20;;;;;;;5.88;2.25;;;;;;;;;;5055917;28;20037;-73
2022/03/20 09:24:48;;;;;;;3.33;2.95;;;;;;;;;;5054238;28;20029;-75
2022/03/20 09:27:13;;;;;;;2.63;2.28;;;;;;;;;;5055779;28;20052;-74
2022/03/20 09:29:39;;;;;;;3.03;1.92;;;;;;;;;;5055565;28;20067;-75
2022/03/20 09:32:05;;;;;;;2.13;1.88;;;;;;;;;;5055014;28;20029;-75
2022/03/20 09:34:32;;;;;;;6.18;4.05;;;;;;;;;;5055155;28;20056;-77
2022/03/20 09:36:58;;;;;;;3.33;2.35;;;;;;;;;;5045587;28;20029;-75
2022/03/20 09:39:26;;;;;;;1.77;1.67;;;;;;;;;;5036508;28;20039;-75
2022/03/20 09:41:54;;;;;;;2.95;2.15;;;;;;;;;;5053723;28;20033;-76
2022/03/20 09:44:24;;;;;;;6.63;2.08;;;;;;;;;;5050052;28;20025;-75
2022/03/20 09:46:53;;;;;;;2.58;2.38;;;;;;;;;;5055709;28;20029;-75
2022/03/20 09:49:20;;;;;;;8.40;4.22;;;;;;;;;;5054572;28;20366;-75
2022/03/20 09:51:45;;;;;;;4.28;2.85;;;;;;;;;;5055670;28;20025;-75
2022/03/20 09:54:13;;;;;;;1.95;1.60;;;;;;;;;;5054884;28;20428;-75
2022/03/20 09:56:41;;;;;;;4.18;2.38;;;;;;;;;;5054404;28;20048;-75
2022/03/20 09:59:07;;;;;;;4.40;3.53;;;;;;;;;;5054330;28;20103;-77
2022/03/20 10:01:33;;;;;;;2.63;2.42;;;;;;;;;;5037384;28;20021;-75
2022/03/20 10:04:10;;;;;;;5.05;3.30;;;;;;;;;;5055342;28;20025;-75
2022/03/20 10:06:37;;;;;;;4.97;1.90;;;;;;;;;;5054548;28;20036;-76
2022/03/20 10:09:05;;;;;;;3.45;3.05;;;;;;;;;;5055127;28;20024;-76
2022/03/20 10:11:32;;;;;;;3.50;2.45;;;;;;;;;;5054335;28;20021;-76
2022/03/20 10:14:14;;;;;;;3.60;2.83;;;;;;;;;;5054983;28;20013;-76
2022/03/20 10:16:44;;;;;;;3.95;3.55;;;;;;;;;;5049046;28;20116;-76
2022/03/20 10:19:22;;;;;;;8.43;3.00;;;;;;;;;;5055365;28;20054;-76
2022/03/20 10:21:47;;;;;;;4.72;3.35;;;;;;;;;;5049491;28;20033;-75
2022/03/20 10:24:21;;;;;;;2.83;2.58;;;;;;;;;;5054777;28;20477;-76
2022/03/20 10:27:11;;;;;;;3.10;2.42;;;;;;;;;;5036954;28;20073;-76
2022/03/20 10:29:47;;;;;;;5.80;3.83;;;;;;;;;;5054033;28;20485;-76
2022/03/20 10:32:12;;;;;;;8.10;2.28;;;;;;;;;;5048791;28;20035;-76
2022/03/20 10:34:50;;;;;;;3.35;2.97;;;;;;;;;;5036860;28;20021;-74
2022/03/20 10:37:22;;;;;;;4.32;3.92;;;;;;;;;;5048021;28;20021;-73
2022/03/20 10:39:47;;;;;;;7.82;3.47;;;;;;;;;;5047855;28;20032;-73
2022/03/20 10:42:28;;;;;;;4.63;3.63;;;;;;;;;;5051406;28;20037;-74
2022/03/20 10:45:05;;;;;;;3.85;3.30;;;;;;;;;;5054213;28;20109;-73
2022/03/20 10:50:57;;;;;;;4.20;2.22;;;;;;;;;;5046329;28;20339;-73
2022/03/20 10:53:22;;;;;;;7.30;3.35;;;;;;;;;;5052058;28;20374;-74
2022/03/20 10:55:50;;;;;;;3.20;2.72;;;;;;;;;;5054364;28;20021;-76
2022/03/20 10:58:19;;;;;;;5.65;3.75;;;;;;;;;;5053081;28;20028;-76
2022/03/20 11:00:46;;;;;;;5.68;2.85;;;;;;;;;;5033282;28;20020;-76
2022/03/20 11:03:14;;;;;;;1.77;1.65;;;;;;;;;;5054330;28;20040;-76
2022/03/20 11:05:40;;;;;;;3.05;2.42;;;;;;;;;;5050366;28;20028;-75
2022/03/20 11:08:06;;;;;;;4.10;3.70;;;;;;;;;;5051743;28;20035;-76
2022/03/20 11:10:31;;;;;;;11.57;3.33;;;;;;;;;;5051190;28;20518;-76
2022/03/20 11:13:00;;;;;;;2.75;2.47;;;;;;;;;;5049194;28;20094;-76
2022/03/20 11:15:32;;;;;;;2.60;2.25;;;;;;;;;;5076065;28;20464;-75
2022/03/20 11:18:01;;;;;;;3.60;3.30;;;;;;;;;;5044510;28;20032;-73
2022/03/20 11:20:27;;;;;;;4.63;3.90;;;;;;;;;;5054044;28;20331;-75
2022/03/20 11:22:55;;;;;;;5.25;3.95;;;;;;;;;;5052083;28;20029;-74
2022/03/20 11:25:26;;;;;;;7.55;4.93;;;;;;;;;;5048809;28;20036;-73
2022/03/20 11:27:55;;;;;;;4.00;3.17;;;;;;;;;;5057028;28;20043;-73
2022/03/20 11:30:22;;;;;;;4.22;3.08;;;;;;;;;;5048004;28;20025;-73
2022/03/20 11:32:51;;;;;;;5.50;4.20;;;;;;;;;;5052079;28;20087;-74
2022/03/20 11:35:22;;;;;;;3.47;3.17;;;;;;;;;;5046019;28;20061;-73
2022/03/20 11:37:51;;;;;;;3.72;2.78;;;;;;;;;;5047291;28;20059;-74
2022/03/20 11:40:21;;;;;;;6.97;4.72;;;;;;;;;;5053142;28;20025;-73
2022/03/20 11:42:49;;;;;;;2.45;2.10;;;;;;;;;;5053851;28;20020;-73
2022/03/20 11:45:23;;;;;;;8.45;4.45;;;;;;;;;;5053719;28;20041;-74
2022/03/20 11:47:51;;;;;;;3.30;3.00;;;;;;;;;;5047939;28;20108;-77
2022/03/20 11:50:17;;;;;;;4.22;3.72;;;;;;;;;;5054710;28;20025;-74
2022/03/20 11:52:46;;;;;;;5.18;3.58;;;;;;;;;;5052848;28;20401;-74
2022/03/20 11:55:30;;;;;;;1.88;1.77;;;;;;;;;;5053888;28;20056;-74
2022/03/20 11:58:26;;;;;;;3.13;2.85;;;;;;;;;;5052235;28;20414;-74
2022/03/20 12:01:09;;;;;;;4.70;3.72;;;;;;;;;;5053244;28;20036;-75
2022/03/20 12:03:46;;;;;;;4.50;3.38;;;;;;;;;;5049484;28;20443;-74
2022/03/20 12:06:27;;;;;;;5.68;4.28;;;;;;;;;;5054063;28;20116;-75
2022/03/20 12:09:10;;;;;;;7.80;2.90;;;;;;;;;;5053677;28;20039;-74
2022/03/20 12:12:00;;;;;;;3.58;3.28;;;;;;;;;;5052786;28;20029;-74
2022/03/20 12:14:30;;;;;;;5.75;4.43;;;;;;;;;;5052551;28;20025;-74
2022/03/20 12:17:00;;;;;;;5.88;2.92;;;;;;;;;;5052652;28;20036;-73
2022/03/20 12:19:44;;;;;;;3.83;2.78;;;;;;;;;;5051384;28;20026;-73
2022/03/20 12:22:24;;;;;;;2.83;2.63;;;;;;;;;;5047135;28;20029;-74
2022/03/20 12:24:52;;;;;;;4.68;3.70;;;;;;;;;;5053463;28;20124;-74
2022/03/20 12:27:24;;;;;;;6.57;3.72;;;;;;;;;;5059571;28;20021;-75
2022/03/20 12:30:21;;;;;;;4.75;3.05;;;;;;;;;;5052405;28;20033;-76
2022/03/20 12:32:46;;;;;;;3.75;3.10;;;;;;;;;;5046984;28;20021;-73
2022/03/20 12:35:14;;;;;;;3.65;2.45;;;;;;;;;;5052496;28;20017;-74
2022/03/20 12:37:40;;;;;;;5.57;4.10;;;;;;;;;;5050263;28;20036;-74
2022/03/20 12:40:10;;;;;;;4.68;3.75;;;;;;;;;;5053250;28;20032;-74
2022/03/20 12:42:42;;;;;;;4.95;3.85;;;;;;;;;;5054687;28;20079;-74
2022/03/20 12:45:09;;;;;;;3.72;3.42;;;;;;;;;;5051724;28;20022;-74
2022/03/20 12:47:35;;;;;;;2.88;2.67;;;;;;;;;;5055095;28;20033;-74
2022/03/20 12:50:04;;;;;;;6.10;4.35;;;;;;;;;;5060460;28;20043;-74
2022/03/20 12:52:33;;;;;;;5.53;3.53;;;;;;;;;;5051823;28;20028;-75
2022/03/20 12:55:02;;;;;;;5.20;3.50;;;;;;;;;;5054507;28;20049;-76
2022/03/20 12:57:39;;;;;;;6.72;4.82;;;;;;;;;;5050982;28;20032;-74
2022/03/20 13:00:13;;;;;;;3.25;2.50;;;;;;;;;;5057567;28;20087;-74
2022/03/20 13:03:21;;;;;;;4.30;2.67;;;;;;;;;;5060773;28;20109;-74
2022/03/20 13:05:49;;;;;;;5.32;3.20;;;;;;;;;;5011137;28;20439;-75
2022/03/20 13:08:30;;;;;;;3.00;2.38;;;;;;;;;;5050233;28;20060;-73
2022/03/20 13:10:57;;;;;;;6.10;4.50;;;;;;;;;;5056396;28;20025;-74
2022/03/20 13:13:30;;;;;;;4.25;3.50;;;;;;;;;;5038793;28;20027;-74
2022/03/20 13:15:56;;;;;;;2.72;2.45;;;;;;;;;;5055693;28;20052;-73
2022/03/20 13:18:26;;;;;;;7.53;3.45;;;;;;;;;;5055404;28;20021;-75
2022/03/20 13:20:54;;;;;;;3.55;2.85;;;;;;;;;;5054659;28;20029;-73
2022/03/20 13:23:25;;;;;;;3.28;2.97;;;;;;;;;;5055746;28;20354;-73
2022/03/20 13:25:53;;;;;;;3.60;3.03;;;;;;;;;;5055775;28;20477;-73
2022/03/20 13:28:33;;;;;;;4.53;3.60;;;;;;;;;;5055796;28;20442;-73
2022/03/20 13:31:05;;;;;;;6.07;2.92;;;;;;;;;;5049120;28;20049;-73
2022/03/20 13:33:32;;;;;;;11.57;3.28;;;;;;;;;;5055100;28;20085;-73
2022/03/20 13:36:03;;;;;;;7.05;4.03;;;;;;;;;;5054920;28;20032;-74
2022/03/20 13:38:34;;;;;;;5.32;3.47;;;;;;;;;;5057503;28;20055;-74
2022/03/20 13:41:08;;;;;;;3.72;2.85;;;;;;;;;;5054440;28;20028;-73
2022/03/20 13:43:34;;;;;;;5.97;4.80;;;;;;;;;;5055343;28;20029;-74
2022/03/20 13:46:19;;;;;;;3.95;2.75;;;;;;;;;;5056408;28;20029;-74
2022/03/20 13:48:47;;;;;;;4.63;2.75;;;;;;;;;;5056761;28;20071;-74
2022/03/20 13:51:12;;;;;;;6.50;2.92;;;;;;;;;;5054239;28;20016;-75
2022/03/20 13:53:38;;;;;;;3.35;2.17;;;;;;;;;;5040730;28;20339;-73
2022/03/20 13:56:19;;;;;;;9.77;3.58;;;;;;;;;;5055973;28;20031;-74
2022/03/20 13:59:07;;;;;;;4.10;3.45;;;;;;;;;;5054433;28;20473;-73
2022/03/20 14:01:43;;;;;;;4.07;3.10;;;;;;;;;;5051567;28;20040;-73
2022/03/20 14:04:12;;;;;;;6.05;3.97;;;;;;;;;;5056197;28;20033;-74
2022/03/20 14:06:41;;;;;;;4.78;3.05;;;;;;;;;;5054244;28;20021;-74
2022/03/20 14:09:10;;;;;;;3.45;3.15;;;;;;;;;;5039174;28;20161;-73
2022/03/20 14:11:39;;;;;;;3.90;3.58;;;;;;;;;;5043541;28;20075;-72
2022/03/20 14:14:08;;;;;;;5.82;3.90;;;;;;;;;;5041894;28;20092;-73
2022/03/20 14:16:38;;;;;;;9.10;2.70;;;;;;;;;;5041239;28;20025;-73
2022/03/20 14:19:07;;;;;;;2.63;1.92;;;;;;;;;;5046680;28;20043;-74
2022/03/20 14:21:54;;;;;;;4.75;3.83;;;;;;;;;;5043960;28;20091;-74
2022/03/20 14:24:19;;;;;;;4.65;2.47;;;;;;;;;;5067927;28;20103;-73
2022/03/20 14:26:47;;;;;;;4.45;2.95;;;;;;;;;;5048771;28;20025;-72
2022/03/20 14:39:26;;;;;;;2.70;2.47;;;;;;;;;;5031136;28;20051;-73
2022/03/20 14:40:49;;;;;;;3.15;2.50;;;;;;;;;;5053965;28;20167;-72
2022/03/20 14:43:21;;;;;;;5.63;3.85;;;;;;;;;;5045732;28;20029;-71
2022/03/20 14:45:47;;;;;;;3.35;3.05;;;;;;;;;;5051178;28;20029;-70
2022/03/20 14:48:12;;;;;;;3.80;3.47;;;;;;;;;;5059012;28;20029;-72
2022/03/20 14:50:41;;;;;;;6.07;3.15;;;;;;;;;;5053891;28;20032;-71
2022/03/20 14:53:07;;;;;;;7.05;3.95;;;;;;;;;;5054340;28;20126;-73
2022/03/20 14:55:32;;;;;;;5.97;2.35;;;;;;;;;;5048687;28;20029;-71
2022/03/20 14:58:00;;;;;;;4.88;2.90;;;;;;;;;;5056941;28;20029;-71
2022/03/20 15:00:27;;;;;;;3.10;2.83;;;;;;;;;;5056220;28;20430;-73
2022/03/20 15:02:52;;;;;;;4.90;4.35;;;;;;;;;;5069508;28;20029;-73
2022/03/20 15:05:18;;;;;;;3.13;2.92;;;;;;;;;;5060760;28;20456;-73
2022/03/20 15:13:21;;;;;;;2.60;2.40;;;;;;;;;;5038471;28;20490;-75
2022/03/20 15:15:46;;;;;;;8.88;2.75;;;;;;;;;;5049340;28;20048;-75
2022/03/20 15:18:15;;;;;;;3.75;3.45;;;;;;;;;;5048050;28;20035;-75
2022/03/20 15:20:40;;;;;;;4.30;2.60;;;;;;;;;;5056181;28;20021;-73
2022/03/20 15:23:06;;;;;;;4.35;1.85;;;;;;;;;;5050828;28;20160;-74
2022/03/20 15:25:34;;;;;;;3.38;3.08;;;;;;;;;;5052396;28;20040;-75
2022/03/20 15:28:08;;;;;;;4.43;2.42;;;;;;;;;;5058018;28;20067;-73
2022/03/20 15:30:34;;;;;;;2.28;2.08;;;;;;;;;;5063795;28;20450;-75
2022/03/20 15:33:00;;;;;;;4.40;3.03;;;;;;;;;;5043195;28;20025;-74
2022/03/20 15:35:26;;;;;;;4.25;3.90;;;;;;;;;;5047624;28;20013;-74
2022/03/20 15:37:52;;;;;;;5.60;3.70;;;;;;;;;;5051069;28;20035;-73
2022/03/20 15:40:18;;;;;;;8.10;3.58;;;;;;;;;;5045883;28;20040;-73